sensor_id;sensor_type;location;lat;lon;timestamp;P1;durP1;ratioP1;P2;durP2;ratioP2
61254;SDS011;47128;47.530;8.584;2024-03-17T00:00:37;7.20;;;3.80;;
61254;SDS011;47128;47.530;8.584;2024-03-17T00:03:07;7.13;;;3.30;;
61254;SDS011;47128;47.530;8.584;2024-03-17T00:05:34;5.70;;;3.20;;
61254;SDS011;47128;47.530;8.584;2024-03-17T00:08:03;7.70;;;3.10;;
61254;SDS011;47128;47.530;8.584;2024-03-17T00:10:33;6.28;;;4.15;;
61254;SDS011;47128;47.530;8.584;2024-03-17T00:13:00;9.65;;;4.60;;
61254;SDS011;47128;47.530;8.584;2024-03-17T00:15:26;10.38;;;5.10;;
61254;SDS011;47128;47.530;8.584;2024-03-17T00:17:53;8.18;;;4.63;;
61254;SDS011;47128;47.530;8.584;2024-03-17T00:20:19;9.63;;;4.38;;
61254;SDS011;47128;47.530;8.584;2024-03-17T00:22:49;21.90;;;5.20;;
61254;SDS011;47128;47.530;8.584;2024-03-17T00:25:17;8.00;;;3.85;;
61254;SDS011;47128;47.530;8.584;2024-03-17T00:27:43;5.70;;;3.65;;
61254;SDS011;47128;47.530;8.584;2024-03-17T00:30:10;7.40;;;3.38;;
61254;SDS011;47128;47.530;8.584;2024-03-17T00:32:41;12.35;;;3.65;;
61254;SDS011;47128;47.530;8.584;2024-03-17T00:35:07;6.80;;;3.67;;
61254;SDS011;47128;47.530;8.584;2024-03-17T00:37:35;11.30;;;3.92;;
61254;SDS011;47128;47.530;8.584;2024-03-17T00:40:03;11.00;;;3.88;;
61254;SDS011;47128;47.530;8.584;2024-03-17T00:42:29;7.45;;;3.72;;
61254;SDS011;47128;47.530;8.584;2024-03-17T00:44:56;9.68;;;3.88;;
61254;SDS011;47128;47.530;8.584;2024-03-17T00:47:22;8.15;;;4.05;;
61254;SDS011;47128;47.530;8.584;2024-03-17T00:49:51;5.70;;;3.83;;
61254;SDS011;47128;47.530;8.584;2024-03-17T00:52:17;8.15;;;4.43;;
61254;SDS011;47128;47.530;8.584;2024-03-17T00:54:46;5.55;;;4.28;;
61254;SDS011;47128;47.530;8.584;2024-03-17T00:57:13;7.55;;;4.28;;
61254;SDS011;47128;47.530;8.584;2024-03-17T00:59:40;7.28;;;4.00;;
61254;SDS011;47128;47.530;8.584;2024-03-17T01:02:08;6.63;;;3.75;;
61254;SDS011;47128;47.530;8.584;2024-03-17T01:04:34;7.57;;;3.30;;
61254;SDS011;47128;47.530;8.584;2024-03-17T01:07:00;5.25;;;4.25;;
61254;SDS011;47128;47.530;8.584;2024-03-17T01:09:27;6.82;;;4.40;;
61254;SDS011;47128;47.530;8.584;2024-03-17T01:11:53;10.40;;;4.53;;
61254;SDS011;47128;47.530;8.584;2024-03-17T01:14:19;7.18;;;4.35;;
61254;SDS011;47128;47.530;8.584;2024-03-17T01:16:45;11.32;;;4.95;;
61254;SDS011;47128;47.530;8.584;2024-03-17T01:19:15;11.57;;;4.90;;
61254;SDS011;47128;47.530;8.584;2024-03-17T01:21:41;8.27;;;4.40;;
61254;SDS011;47128;47.530;8.584;2024-03-17T01:24:07;8.73;;;4.38;;
61254;SDS011;47128;47.530;8.584;2024-03-17T01:26:33;7.82;;;3.53;;
61254;SDS011;47128;47.530;8.584;2024-03-17T01:29:00;9.45;;;4.22;;
61254;SDS011;47128;47.530;8.584;2024-03-17T01:31:27;6.95;;;3.75;;
61254;SDS011;47128;47.530;8.584;2024-03-17T01:33:53;6.53;;;3.47;;
61254;SDS011;47128;47.530;8.584;2024-03-17T01:36:19;9.80;;;4.32;;
61254;SDS011;47128;47.530;8.584;2024-03-17T01:38:46;7.95;;;4.90;;
61254;SDS011;47128;47.530;8.584;2024-03-17T01:41:15;8.98;;;4.95;;
61254;SDS011;47128;47.530;8.584;2024-03-17T01:43:41;11.93;;;5.00;;
61254;SDS011;47128;47.530;8.584;2024-03-17T01:46:10;11.35;;;4.28;;
61254;SDS011;47128;47.530;8.584;2024-03-17T01:48:37;8.07;;;4.65;;
61254;SDS011;47128;47.530;8.584;2024-03-17T01:51:04;11.75;;;4.97;;
61254;SDS011;47128;47.530;8.584;2024-03-17T01:53:30;11.90;;;4.53;;
61254;SDS011;47128;47.530;8.584;2024-03-17T01:55:57;9.77;;;4.70;;
61254;SDS011;47128;47.530;8.584;2024-03-17T01:58:25;6.88;;;4.18;;
61254;SDS011;47128;47.530;8.584;2024-03-17T02:00:51;6.72;;;4.13;;
61254;SDS011;47128;47.530;8.584;2024-03-17T02:03:17;10.63;;;4.32;;
61254;SDS011;47128;47.530;8.584;2024-03-17T02:05:46;11.77;;;4.60;;
61254;SDS011;47128;47.530;8.584;2024-03-17T02:08:13;8.88;;;4.78;;
61254;SDS011;47128;47.530;8.584;2024-03-17T02:10:39;5.70;;;3.53;;
61254;SDS011;47128;47.530;8.584;2024-03-17T02:13:05;7.10;;;3.67;;
61254;SDS011;47128;47.530;8.584;2024-03-17T02:15:32;5.55;;;3.47;;
61254;SDS011;47128;47.530;8.584;2024-03-17T02:17:58;8.57;;;3.80;;
61254;SDS011;47128;47.530;8.584;2024-03-17T02:20:25;8.18;;;4.10;;
61254;SDS011;47128;47.530;8.584;2024-03-17T02:23:10;9.02;;;4.40;;
61254;SDS011;47128;47.530;8.584;2024-03-17T02:25:36;8.88;;;3.97;;
61254;SDS011;47128;47.530;8.584;2024-03-17T02:28:03;6.32;;;3.30;;
61254;SDS011;47128;47.530;8.584;2024-03-17T02:30:32;7.57;;;4.15;;
61254;SDS011;47128;47.530;8.584;2024-03-17T02:32:59;9.25;;;3.95;;
61254;SDS011;47128;47.530;8.584;2024-03-17T02:35:27;7.95;;;4.13;;
61254;SDS011;47128;47.530;8.584;2024-03-17T02:37:53;6.70;;;3.53;;
61254;SDS011;47128;47.530;8.584;2024-03-17T02:40:25;8.57;;;3.92;;
61254;SDS011;47128;47.530;8.584;2024-03-17T02:42:51;8.68;;;4.03;;
61254;SDS011;47128;47.530;8.584;2024-03-17T02:45:17;7.95;;;4.00;;
61254;SDS011;47128;47.530;8.584;2024-03-17T02:47:45;10.30;;;4.38;;
61254;SDS011;47128;47.530;8.584;2024-03-17T02:50:11;9.25;;;3.72;;
61254;SDS011;47128;47.530;8.584;2024-03-17T02:52:38;12.05;;;4.50;;
61254;SDS011;47128;47.530;8.584;2024-03-17T02:55:04;7.22;;;4.38;;
61254;SDS011;47128;47.530;8.584;2024-03-17T02:57:31;8.07;;;4.13;;
61254;SDS011;47128;47.530;8.584;2024-03-17T02:59:58;6.93;;;3.97;;
61254;SDS011;47128;47.530;8.584;2024-03-17T03:02:24;9.10;;;4.18;;
61254;SDS011;47128;47.530;8.584;2024-03-17T03:04:50;8.73;;;4.82;;
61254;SDS011;47128;47.530;8.584;2024-03-17T03:07:16;6.90;;;3.95;;
61254;SDS011;47128;47.530;8.584;2024-03-17T03:09:43;6.38;;;3.67;;
61254;SDS011;47128;47.530;8.584;2024-03-17T03:12:09;5.53;;;3.58;;
61254;SDS011;47128;47.530;8.584;2024-03-17T03:14:35;5.30;;;3.88;;
61254;SDS011;47128;47.530;8.584;2024-03-17T03:17:02;7.15;;;4.30;;
61254;SDS011;47128;47.530;8.584;2024-03-17T03:19:28;8.30;;;4.40;;
61254;SDS011;47128;47.530;8.584;2024-03-17T03:21:55;7.18;;;3.80;;
61254;SDS011;47128;47.530;8.584;2024-03-17T03:24:21;8.27;;;4.15;;
61254;SDS011;47128;47.530;8.584;2024-03-17T03:26:47;7.85;;;4.50;;
61254;SDS011;47128;47.530;8.584;2024-03-17T03:29:14;9.75;;;5.07;;
61254;SDS011;47128;47.530;8.584;2024-03-17T03:31:40;29.75;;;6.40;;
61254;SDS011;47128;47.530;8.584;2024-03-17T03:34:06;68.72;;;10.40;;
61254;SDS011;47128;47.530;8.584;2024-03-17T03:36:34;10.07;;;5.60;;
61254;SDS011;47128;47.530;8.584;2024-03-17T03:39:01;32.20;;;6.15;;
61254;SDS011;47128;47.530;8.584;2024-03-17T03:41:29;85.47;;;9.05;;
61254;SDS011;47128;47.530;8.584;2024-03-17T03:43:56;61.47;;;8.52;;
61254;SDS011;47128;47.530;8.584;2024-03-17T03:46:22;99.53;;;10.90;;
61254;SDS011;47128;47.530;8.584;2024-03-17T03:48:48;143.02;;;12.10;;
61254;SDS011;47128;47.530;8.584;2024-03-17T03:51:14;141.95;;;12.68;;
61254;SDS011;47128;47.530;8.584;2024-03-17T03:53:40;112.18;;;13.13;;
61254;SDS011;47128;47.530;8.584;2024-03-17T03:56:07;174.73;;;12.45;;
61254;SDS011;47128;47.530;8.584;2024-03-17T03:58:36;186.00;;;14.85;;
61254;SDS011;47128;47.530;8.584;2024-03-17T04:01:09;165.43;;;14.15;;
61254;SDS011;47128;47.530;8.584;2024-03-17T04:03:36;144.80;;;12.80;;
61254;SDS011;47128;47.530;8.584;2024-03-17T04:06:09;159.32;;;15.10;;
61254;SDS011;47128;47.530;8.584;2024-03-17T04:08:36;159.02;;;12.45;;
61254;SDS011;47128;47.530;8.584;2024-03-17T04:11:05;163.07;;;12.07;;
61254;SDS011;47128;47.530;8.584;2024-03-17T04:13:32;157.95;;;12.45;;
61254;SDS011;47128;47.530;8.584;2024-03-17T04:15:59;186.05;;;14.27;;
61254;SDS011;47128;47.530;8.584;2024-03-17T04:18:25;92.13;;;8.90;;
61254;SDS011;47128;47.530;8.584;2024-03-17T04:20:55;131.02;;;10.10;;
61254;SDS011;47128;47.530;8.584;2024-03-17T04:23:21;111.03;;;10.15;;
61254;SDS011;47128;47.530;8.584;2024-03-17T04:25:48;131.20;;;11.20;;
61254;SDS011;47128;47.530;8.584;2024-03-17T04:28:15;179.82;;;12.23;;
61254;SDS011;47128;47.530;8.584;2024-03-17T04:30:41;85.63;;;10.65;;
61254;SDS011;47128;47.530;8.584;2024-03-17T04:33:08;47.42;;;6.38;;
61254;SDS011;47128;47.530;8.584;2024-03-17T04:35:38;52.30;;;7.00;;
61254;SDS011;47128;47.530;8.584;2024-03-17T04:38:05;32.33;;;6.18;;
61254;SDS011;47128;47.530;8.584;2024-03-17T04:40:32;11.70;;;4.47;;
61254;SDS011;47128;47.530;8.584;2024-03-17T04:42:58;13.30;;;4.40;;
61254;SDS011;47128;47.530;8.584;2024-03-17T04:45:24;6.93;;;4.10;;
61254;SDS011;47128;47.530;8.584;2024-03-17T04:47:51;12.55;;;3.97;;
61254;SDS011;47128;47.530;8.584;2024-03-17T04:50:17;16.15;;;6.82;;
61254;SDS011;47128;47.530;8.584;2024-03-17T04:52:46;15.60;;;4.40;;
61254;SDS011;47128;47.530;8.584;2024-03-17T04:55:12;9.65;;;4.93;;
61254;SDS011;47128;47.530;8.584;2024-03-17T04:57:38;16.67;;;5.13;;
61254;SDS011;47128;47.530;8.584;2024-03-17T05:00:07;18.05;;;5.00;;
61254;SDS011;47128;47.530;8.584;2024-03-17T05:02:34;9.52;;;5.32;;
61254;SDS011;47128;47.530;8.584;2024-03-17T05:05:00;12.20;;;4.50;;
61254;SDS011;47128;47.530;8.584;2024-03-17T05:07:27;14.43;;;4.50;;
61254;SDS011;47128;47.530;8.584;2024-03-17T05:09:54;30.17;;;5.25;;
61254;SDS011;47128;47.530;8.584;2024-03-17T05:12:20;13.30;;;5.25;;
61254;SDS011;47128;47.530;8.584;2024-03-17T05:14:46;19.95;;;5.25;;
61254;SDS011;47128;47.530;8.584;2024-03-17T05:17:13;8.48;;;4.07;;
61254;SDS011;47128;47.530;8.584;2024-03-17T05:19:39;9.73;;;5.22;;
61254;SDS011;47128;47.530;8.584;2024-03-17T05:22:07;10.20;;;3.88;;
61254;SDS011;47128;47.530;8.584;2024-03-17T05:24:33;9.90;;;4.70;;
61254;SDS011;47128;47.530;8.584;2024-03-17T05:26:59;9.00;;;4.72;;
61254;SDS011;47128;47.530;8.584;2024-03-17T05:29:26;16.10;;;4.65;;
61254;SDS011;47128;47.530;8.584;2024-03-17T05:31:52;26.60;;;5.05;;
61254;SDS011;47128;47.530;8.584;2024-03-17T05:34:18;47.53;;;7.18;;
61254;SDS011;47128;47.530;8.584;2024-03-17T05:36:44;70.85;;;8.43;;
61254;SDS011;47128;47.530;8.584;2024-03-17T05:39:12;79.47;;;8.48;;
61254;SDS011;47128;47.530;8.584;2024-03-17T05:41:39;62.33;;;9.02;;
61254;SDS011;47128;47.530;8.584;2024-03-17T05:44:06;60.63;;;7.85;;
61254;SDS011;47128;47.530;8.584;2024-03-17T05:46:32;53.17;;;10.90;;
61254;SDS011;47128;47.530;8.584;2024-03-17T05:48:59;105.60;;;11.27;;
61254;SDS011;47128;47.530;8.584;2024-03-17T05:51:25;130.38;;;9.52;;
61254;SDS011;47128;47.530;8.584;2024-03-17T05:53:53;92.07;;;8.82;;
61254;SDS011;47128;47.530;8.584;2024-03-17T05:56:21;49.72;;;6.80;;
61254;SDS011;47128;47.530;8.584;2024-03-17T05:58:48;87.65;;;8.15;;
61254;SDS011;47128;47.530;8.584;2024-03-17T06:01:14;63.72;;;7.22;;
61254;SDS011;47128;47.530;8.584;2024-03-17T06:03:40;69.22;;;8.50;;
61254;SDS011;47128;47.530;8.584;2024-03-17T06:06:07;58.08;;;7.10;;
61254;SDS011;47128;47.530;8.584;2024-03-17T06:08:34;29.40;;;5.55;;
61254;SDS011;47128;47.530;8.584;2024-03-17T06:11:01;38.90;;;6.40;;
61254;SDS011;47128;47.530;8.584;2024-03-17T06:13:27;59.60;;;7.50;;
61254;SDS011;47128;47.530;8.584;2024-03-17T06:15:53;36.78;;;5.70;;
61254;SDS011;47128;47.530;8.584;2024-03-17T06:18:20;32.90;;;5.95;;
61254;SDS011;47128;47.530;8.584;2024-03-17T06:20:47;33.88;;;5.97;;
61254;SDS011;47128;47.530;8.584;2024-03-17T06:23:14;23.70;;;5.88;;
61254;SDS011;47128;47.530;8.584;2024-03-17T06:28:11;23.30;;;4.88;;
61254;SDS011;47128;47.530;8.584;2024-03-17T06:30:41;18.95;;;4.75;;
61254;SDS011;47128;47.530;8.584;2024-03-17T06:33:09;15.45;;;4.68;;
61254;SDS011;47128;47.530;8.584;2024-03-17T06:35:38;6.70;;;3.85;;
61254;SDS011;47128;47.530;8.584;2024-03-17T06:38:05;10.68;;;3.53;;
61254;SDS011;47128;47.530;8.584;2024-03-17T06:40:35;6.63;;;3.90;;
61254;SDS011;47128;47.530;8.584;2024-03-17T06:43:02;11.75;;;4.05;;
61254;SDS011;47128;47.530;8.584;2024-03-17T06:45:28;14.40;;;3.70;;
61254;SDS011;47128;47.530;8.584;2024-03-17T06:47:54;11.38;;;3.30;;
61254;SDS011;47128;47.530;8.584;2024-03-17T06:50:21;7.03;;;3.13;;
61254;SDS011;47128;47.530;8.584;2024-03-17T06:52:50;6.95;;;3.58;;
61254;SDS011;47128;47.530;8.584;2024-03-17T06:55:19;10.95;;;3.72;;
61254;SDS011;47128;47.530;8.584;2024-03-17T06:57:49;7.65;;;3.60;;
61254;SDS011;47128;47.530;8.584;2024-03-17T07:00:16;4.13;;;3.05;;
61254;SDS011;47128;47.530;8.584;2024-03-17T07:02:49;5.97;;;2.85;;
61254;SDS011;47128;47.530;8.584;2024-03-17T07:05:15;7.25;;;2.95;;
61254;SDS011;47128;47.530;8.584;2024-03-17T07:07:44;6.68;;;3.33;;
61254;SDS011;47128;47.530;8.584;2024-03-17T07:10:11;36.30;;;4.72;;
61254;SDS011;47128;47.530;8.584;2024-03-17T07:12:37;6.78;;;3.30;;
61254;SDS011;47128;47.530;8.584;2024-03-17T07:15:04;10.07;;;3.13;;
61254;SDS011;47128;47.530;8.584;2024-03-17T07:17:30;8.05;;;3.55;;
61254;SDS011;47128;47.530;8.584;2024-03-17T07:19:59;7.80;;;4.03;;
61254;SDS011;47128;47.530;8.584;2024-03-17T07:22:25;16.42;;;3.80;;
61254;SDS011;47128;47.530;8.584;2024-03-17T07:24:54;5.47;;;2.97;;
61254;SDS011;47128;47.530;8.584;2024-03-17T07:27:26;9.05;;;3.38;;
61254;SDS011;47128;47.530;8.584;2024-03-17T07:29:52;12.15;;;3.35;;
61254;SDS011;47128;47.530;8.584;2024-03-17T07:32:18;3.05;;;2.75;;
61254;SDS011;47128;47.530;8.584;2024-03-17T07:34:44;12.48;;;3.42;;
61254;SDS011;47128;47.530;8.584;2024-03-17T07:37:10;7.47;;;2.75;;
61254;SDS011;47128;47.530;8.584;2024-03-17T07:39:36;4.35;;;2.60;;
61254;SDS011;47128;47.530;8.584;2024-03-17T07:42:03;38.92;;;3.80;;
61254;SDS011;47128;47.530;8.584;2024-03-17T07:44:29;8.65;;;3.30;;
61254;SDS011;47128;47.530;8.584;2024-03-17T07:47:00;9.30;;;3.00;;
61254;SDS011;47128;47.530;8.584;2024-03-17T07:49:26;7.72;;;2.80;;
61254;SDS011;47128;47.530;8.584;2024-03-17T07:51:52;2.95;;;2.58;;
61254;SDS011;47128;47.530;8.584;2024-03-17T07:54:18;4.82;;;2.60;;
61254;SDS011;47128;47.530;8.584;2024-03-17T07:56:44;3.92;;;2.63;;
61254;SDS011;47128;47.530;8.584;2024-03-17T07:59:13;7.22;;;2.90;;
61254;SDS011;47128;47.530;8.584;2024-03-17T08:01:43;4.75;;;3.15;;
61254;SDS011;47128;47.530;8.584;2024-03-17T08:04:09;3.80;;;2.88;;
61254;SDS011;47128;47.530;8.584;2024-03-17T08:06:37;5.53;;;2.83;;
61254;SDS011;47128;47.530;8.584;2024-03-17T08:09:04;5.97;;;3.40;;
61254;SDS011;47128;47.530;8.584;2024-03-17T08:11:30;3.60;;;3.13;;
61254;SDS011;47128;47.530;8.584;2024-03-17T08:13:56;7.95;;;3.47;;
61254;SDS011;47128;47.530;8.584;2024-03-17T08:16:26;10.05;;;4.00;;
61254;SDS011;47128;47.530;8.584;2024-03-17T08:18:54;5.80;;;3.55;;
61254;SDS011;47128;47.530;8.584;2024-03-17T08:21:21;5.38;;;3.67;;
61254;SDS011;47128;47.530;8.584;2024-03-17T08:23:47;5.20;;;3.75;;
61254;SDS011;47128;47.530;8.584;2024-03-17T08:26:13;4.97;;;4.03;;
61254;SDS011;47128;47.530;8.584;2024-03-17T08:28:39;11.63;;;4.30;;
61254;SDS011;47128;47.530;8.584;2024-03-17T08:31:06;4.80;;;3.60;;
61254;SDS011;47128;47.530;8.584;2024-03-17T08:33:32;12.40;;;4.18;;
61254;SDS011;47128;47.530;8.584;2024-03-17T08:36:02;4.68;;;2.97;;
61254;SDS011;47128;47.530;8.584;2024-03-17T08:38:29;4.85;;;3.72;;
61254;SDS011;47128;47.530;8.584;2024-03-17T08:40:56;4.22;;;3.38;;
61254;SDS011;47128;47.530;8.584;2024-03-17T08:43:23;4.68;;;3.05;;
61254;SDS011;47128;47.530;8.584;2024-03-17T08:48:24;5.88;;;4.13;;
61254;SDS011;47128;47.530;8.584;2024-03-17T08:50:51;7.45;;;4.10;;
61254;SDS011;47128;47.530;8.584;2024-03-17T08:53:17;4.07;;;3.28;;
61254;SDS011;47128;47.530;8.584;2024-03-17T08:55:44;4.15;;;3.20;;
61254;SDS011;47128;47.530;8.584;2024-03-17T08:58:10;5.03;;;3.03;;
61254;SDS011;47128;47.530;8.584;2024-03-17T09:00:36;4.00;;;3.05;;
61254;SDS011;47128;47.530;8.584;2024-03-17T09:03:03;4.32;;;3.67;;
61254;SDS011;47128;47.530;8.584;2024-03-17T09:05:32;4.97;;;3.50;;
61254;SDS011;47128;47.530;8.584;2024-03-17T09:07:58;4.38;;;3.45;;
61254;SDS011;47128;47.530;8.584;2024-03-17T09:10:26;4.13;;;3.40;;
61254;SDS011;47128;47.530;8.584;2024-03-17T09:12:52;3.85;;;2.95;;
61254;SDS011;47128;47.530;8.584;2024-03-17T09:15:18;4.75;;;3.35;;
61254;SDS011;47128;47.530;8.584;2024-03-17T09:17:45;3.58;;;3.00;;
61254;SDS011;47128;47.530;8.584;2024-03-17T09:20:12;5.30;;;3.60;;
61254;SDS011;47128;47.530;8.584;2024-03-17T09:22:40;4.68;;;3.63;;
61254;SDS011;47128;47.530;8.584;2024-03-17T09:25:07;4.93;;;3.22;;
61254;SDS011;47128;47.530;8.584;2024-03-17T09:27:34;5.63;;;3.72;;
61254;SDS011;47128;47.530;8.584;2024-03-17T09:30:03;7.95;;;4.72;;
61254;SDS011;47128;47.530;8.584;2024-03-17T09:32:31;7.38;;;4.72;;
61254;SDS011;47128;47.530;8.584;2024-03-17T09:34:58;10.95;;;5.93;;
61254;SDS011;47128;47.530;8.584;2024-03-17T09:37:24;10.07;;;5.70;;
61254;SDS011;47128;47.530;8.584;2024-03-17T09:39:51;11.43;;;5.97;;
61254;SDS011;47128;47.530;8.584;2024-03-17T09:42:18;8.73;;;6.05;;
61254;SDS011;47128;47.530;8.584;2024-03-17T09:44:45;8.32;;;5.45;;
61254;SDS011;47128;47.530;8.584;2024-03-17T09:47:22;10.07;;;5.45;;
61254;SDS011;47128;47.530;8.584;2024-03-17T09:49:48;10.07;;;5.80;;
61254;SDS011;47128;47.530;8.584;2024-03-17T09:52:24;8.55;;;6.18;;
61254;SDS011;47128;47.530;8.584;2024-03-17T09:57:23;7.00;;;4.15;;
61254;SDS011;47128;47.530;8.584;2024-03-17T09:59:51;7.38;;;4.15;;
61254;SDS011;47128;47.530;8.584;2024-03-17T10:02:17;5.75;;;4.00;;
61254;SDS011;47128;47.530;8.584;2024-03-17T10:04:44;8.63;;;4.40;;
61254;SDS011;47128;47.530;8.584;2024-03-17T10:07:10;8.13;;;4.72;;
61254;SDS011;47128;47.530;8.584;2024-03-17T10:09:37;6.57;;;4.10;;
61254;SDS011;47128;47.530;8.584;2024-03-17T10:12:04;7.03;;;4.18;;
61254;SDS011;47128;47.530;8.584;2024-03-17T10:14:32;8.82;;;4.25;;
61254;SDS011;47128;47.530;8.584;2024-03-17T10:16:58;7.95;;;4.20;;
61254;SDS011;47128;47.530;8.584;2024-03-17T10:19:24;6.35;;;4.43;;
61254;SDS011;47128;47.530;8.584;2024-03-17T10:21:59;7.80;;;4.55;;
61254;SDS011;47128;47.530;8.584;2024-03-17T10:24:26;6.75;;;4.80;;
61254;SDS011;47128;47.530;8.584;2024-03-17T10:29:27;5.68;;;3.53;;
61254;SDS011;47128;47.530;8.584;2024-03-17T10:32:05;5.70;;;3.47;;
61254;SDS011;47128;47.530;8.584;2024-03-17T10:34:44;6.60;;;3.70;;
61254;SDS011;47128;47.530;8.584;2024-03-17T10:37:10;6.72;;;3.80;;
61254;SDS011;47128;47.530;8.584;2024-03-17T10:39:39;6.05;;;3.85;;
61254;SDS011;47128;47.530;8.584;2024-03-17T10:42:06;10.38;;;4.10;;
61254;SDS011;47128;47.530;8.584;2024-03-17T10:44:40;7.25;;;4.28;;
61254;SDS011;47128;47.530;8.584;2024-03-17T10:47:16;6.65;;;4.32;;
61254;SDS011;47128;47.530;8.584;2024-03-17T10:49:43;7.75;;;4.53;;
61254;SDS011;47128;47.530;8.584;2024-03-17T10:52:17;9.13;;;4.47;;
61254;SDS011;47128;47.530;8.584;2024-03-17T10:54:47;7.20;;;4.67;;
61254;SDS011;47128;47.530;8.584;2024-03-17T10:59:58;8.20;;;4.78;;
61254;SDS011;47128;47.530;8.584;2024-03-17T11:02:26;12.45;;;5.57;;
61254;SDS011;47128;47.530;8.584;2024-03-17T11:05:00;7.93;;;5.13;;
61254;SDS011;47128;47.530;8.584;2024-03-17T11:07:27;7.25;;;4.82;;
61254;SDS011;47128;47.530;8.584;2024-03-17T11:09:57;9.38;;;5.00;;
61254;SDS011;47128;47.530;8.584;2024-03-17T11:17:48;9.52;;;4.40;;
61254;SDS011;47128;47.530;8.584;2024-03-17T11:20:24;9.60;;;5.00;;
61254;SDS011;47128;47.530;8.584;2024-03-17T11:22:54;6.97;;;4.23;;
61254;SDS011;47128;47.530;8.584;2024-03-17T11:36:29;9.80;;;4.45;;
61254;SDS011;47128;47.530;8.584;2024-03-17T11:38:50;10.70;;;4.90;;
61254;SDS011;47128;47.530;8.584;2024-03-17T11:46:55;6.32;;;4.50;;
61254;SDS011;47128;47.530;8.584;2024-03-17T11:49:27;6.93;;;4.05;;
61254;SDS011;47128;47.530;8.584;2024-03-17T11:51:54;8.55;;;4.45;;
61254;SDS011;47128;47.530;8.584;2024-03-17T11:54:22;8.07;;;4.75;;
61254;SDS011;47128;47.530;8.584;2024-03-17T11:56:49;10.45;;;4.20;;
61254;SDS011;47128;47.530;8.584;2024-03-17T11:59:17;6.93;;;4.00;;
61254;SDS011;47128;47.530;8.584;2024-03-17T12:01:46;8.10;;;4.20;;
61254;SDS011;47128;47.530;8.584;2024-03-17T12:04:13;7.20;;;4.50;;
61254;SDS011;47128;47.530;8.584;2024-03-17T12:06:44;6.95;;;3.78;;
61254;SDS011;47128;47.530;8.584;2024-03-17T12:09:21;6.68;;;4.28;;
61254;SDS011;47128;47.530;8.584;2024-03-17T12:11:48;8.23;;;4.05;;
61254;SDS011;47128;47.530;8.584;2024-03-17T12:14:15;7.78;;;4.15;;
61254;SDS011;47128;47.530;8.584;2024-03-17T12:16:54;5.53;;;3.28;;
61254;SDS011;47128;47.530;8.584;2024-03-17T12:19:21;8.15;;;3.70;;
61254;SDS011;47128;47.530;8.584;2024-03-17T12:21:49;5.75;;;3.22;;
61254;SDS011;47128;47.530;8.584;2024-03-17T12:24:19;7.07;;;3.25;;
61254;SDS011;47128;47.530;8.584;2024-03-17T12:26:47;5.00;;;3.10;;
61254;SDS011;47128;47.530;8.584;2024-03-17T12:31:50;6.68;;;3.05;;
61254;SDS011;47128;47.530;8.584;2024-03-17T12:34:17;5.15;;;2.92;;
61254;SDS011;47128;47.530;8.584;2024-03-17T12:36:44;7.50;;;2.50;;
61254;SDS011;47128;47.530;8.584;2024-03-17T12:39:15;4.10;;;2.20;;
61254;SDS011;47128;47.530;8.584;2024-03-17T12:41:44;6.07;;;2.20;;
61254;SDS011;47128;47.530;8.584;2024-03-17T12:44:23;5.30;;;2.30;;
61254;SDS011;47128;47.530;8.584;2024-03-17T12:46:58;4.97;;;2.83;;
61254;SDS011;47128;47.530;8.584;2024-03-17T12:49:28;4.18;;;2.75;;
61254;SDS011;47128;47.530;8.584;2024-03-17T12:51:55;5.13;;;2.58;;
61254;SDS011;47128;47.530;8.584;2024-03-17T12:54:25;5.60;;;2.83;;
61254;SDS011;47128;47.530;8.584;2024-03-17T12:56:52;5.45;;;2.40;;
61254;SDS011;47128;47.530;8.584;2024-03-17T12:59:48;3.95;;;2.25;;
61254;SDS011;47128;47.530;8.584;2024-03-17T13:02:33;8.02;;;2.22;;
61254;SDS011;47128;47.530;8.584;2024-03-17T13:05:18;4.80;;;1.90;;
61254;SDS011;47128;47.530;8.584;2024-03-17T13:07:46;5.07;;;2.13;;
61254;SDS011;47128;47.530;8.584;2024-03-17T13:10:12;4.97;;;1.80;;
61254;SDS011;47128;47.530;8.584;2024-03-17T13:12:39;4.07;;;1.50;;
61254;SDS011;47128;47.530;8.584;2024-03-17T13:15:07;3.22;;;1.80;;
61254;SDS011;47128;47.530;8.584;2024-03-17T13:17:42;4.70;;;1.65;;
61254;SDS011;47128;47.530;8.584;2024-03-17T13:20:12;5.80;;;1.80;;
61254;SDS011;47128;47.530;8.584;2024-03-17T13:22:38;4.68;;;2.00;;
61254;SDS011;47128;47.530;8.584;2024-03-17T13:25:07;3.90;;;1.80;;
61254;SDS011;47128;47.530;8.584;2024-03-17T13:27:35;4.00;;;1.90;;
61254;SDS011;47128;47.530;8.584;2024-03-17T13:30:01;7.05;;;1.90;;
61254;SDS011;47128;47.530;8.584;2024-03-17T13:32:28;4.78;;;2.00;;
61254;SDS011;47128;47.530;8.584;2024-03-17T13:34:55;4.97;;;2.03;;
61254;SDS011;47128;47.530;8.584;2024-03-17T13:37:21;6.78;;;2.65;;
61254;SDS011;47128;47.530;8.584;2024-03-17T13:39:47;10.63;;;2.45;;
61254;SDS011;47128;47.530;8.584;2024-03-17T13:42:14;7.45;;;2.60;;
61254;SDS011;47128;47.530;8.584;2024-03-17T13:44:41;4.00;;;2.00;;
61254;SDS011;47128;47.530;8.584;2024-03-17T13:47:07;5.53;;;2.28;;
61254;SDS011;47128;47.530;8.584;2024-03-17T13:49:34;4.15;;;1.80;;
61254;SDS011;47128;47.530;8.584;2024-03-17T13:52:01;6.03;;;2.08;;
61254;SDS011;47128;47.530;8.584;2024-03-17T13:54:27;5.45;;;1.58;;
61254;SDS011;47128;47.530;8.584;2024-03-17T13:56:53;6.55;;;1.90;;
61254;SDS011;47128;47.530;8.584;2024-03-17T13:59:20;7.13;;;2.20;;
61254;SDS011;47128;47.530;8.584;2024-03-17T14:01:47;4.68;;;1.80;;
61254;SDS011;47128;47.530;8.584;2024-03-17T14:04:14;5.53;;;1.77;;
61254;SDS011;47128;47.530;8.584;2024-03-17T14:06:44;6.05;;;2.35;;
61254;SDS011;47128;47.530;8.584;2024-03-17T14:09:11;4.18;;;1.95;;
61254;SDS011;47128;47.530;8.584;2024-03-17T14:11:37;3.38;;;1.73;;
61254;SDS011;47128;47.530;8.584;2024-03-17T14:14:06;5.00;;;1.70;;
61254;SDS011;47128;47.530;8.584;2024-03-17T14:16:33;3.22;;;1.63;;
61254;SDS011;47128;47.530;8.584;2024-03-17T14:18:59;7.28;;;1.88;;
61254;SDS011;47128;47.530;8.584;2024-03-17T14:21:26;5.78;;;1.90;;
61254;SDS011;47128;47.530;8.584;2024-03-17T14:23:52;3.83;;;1.70;;
61254;SDS011;47128;47.530;8.584;2024-03-17T14:26:21;4.75;;;1.88;;
61254;SDS011;47128;47.530;8.584;2024-03-17T14:28:48;4.63;;;1.80;;
61254;SDS011;47128;47.530;8.584;2024-03-17T14:31:18;5.03;;;1.70;;
61254;SDS011;47128;47.530;8.584;2024-03-17T14:33:44;3.13;;;1.80;;
61254;SDS011;47128;47.530;8.584;2024-03-17T14:36:11;5.70;;;1.80;;
61254;SDS011;47128;47.530;8.584;2024-03-17T14:38:37;4.05;;;1.70;;
61254;SDS011;47128;47.530;8.584;2024-03-17T14:41:03;4.13;;;1.88;;
61254;SDS011;47128;47.530;8.584;2024-03-17T14:43:31;3.80;;;1.70;;
61254;SDS011;47128;47.530;8.584;2024-03-17T14:45:57;2.22;;;1.27;;
61254;SDS011;47128;47.530;8.584;2024-03-17T14:48:26;3.38;;;1.40;;
61254;SDS011;47128;47.530;8.584;2024-03-17T14:50:53;3.28;;;1.80;;
61254;SDS011;47128;47.530;8.584;2024-03-17T14:53:19;2.72;;;1.30;;
61254;SDS011;47128;47.530;8.584;2024-03-17T14:55:45;4.68;;;1.83;;
61254;SDS011;47128;47.530;8.584;2024-03-17T14:58:11;5.30;;;1.60;;
61254;SDS011;47128;47.530;8.584;2024-03-17T15:00:38;4.45;;;1.40;;
61254;SDS011;47128;47.530;8.584;2024-03-17T15:03:04;7.13;;;1.60;;
61254;SDS011;47128;47.530;8.584;2024-03-17T15:05:32;2.78;;;1.45;;
61254;SDS011;47128;47.530;8.584;2024-03-17T15:07:59;3.20;;;1.52;;
61254;SDS011;47128;47.530;8.584;2024-03-17T15:10:27;2.70;;;1.50;;
61254;SDS011;47128;47.530;8.584;2024-03-17T15:12:54;6.90;;;1.77;;
61254;SDS011;47128;47.530;8.584;2024-03-17T15:15:21;4.30;;;1.58;;
61254;SDS011;47128;47.530;8.584;2024-03-17T15:17:50;2.58;;;1.20;;
61254;SDS011;47128;47.530;8.584;2024-03-17T15:20:16;1.52;;;1.27;;
61254;SDS011;47128;47.530;8.584;2024-03-17T15:22:44;5.30;;;1.40;;